Time;durP1;ratioP1;P1;durP2;ratioP2;P2;SDS_P1;SDS_P2;PMS_P1;PMS_P2;Temp;Humidity;BMP_temperature;BMP_pressure;BME280_temperature;BME280_humidity;BME280_pressure;Samples;Min_cycle;Max_cycle;Signal;HPM_P1;HPM_P2
2023/02/18 00:02:34;;;;;;;;;7.00;7.00;;;;;14.90;62.55;98347.22;7690282;22;98546;-68
2023/02/18 00:05:37;;;;;;;;;9.00;8.00;;;;;14.92;62.30;98342.31;7742134;22;96241;-68
2023/02/18 00:08:42;;;;;;;;;7.60;7.60;;;;;14.83;62.52;98340.38;7742792;22;96415;-68
2023/02/18 00:11:45;;;;;;;;;6.80;6.00;;;;;14.84;62.10;98344.72;7740680;22;96582;-68
2023/02/18 00:14:48;;;;;;;;;7.00;7.00;;;;;14.73;62.19;98339.22;7741154;22;96181;-68
2023/02/18 00:17:53;;;;;;;;;7.40;7.00;;;;;14.71;62.14;98338.66;7740776;22;96421;-68
2023/02/18 00:20:57;;;;;;;;;9.25;8.00;;;;;14.64;62.44;98335.38;7713009;22;96564;-68
2023/02/18 00:24:01;;;;;;;;;7.25;6.25;;;;;14.55;63.01;98326.09;7740457;22;96198;-68
2023/02/18 00:27:04;;;;;;;;;7.80;7.00;;;;;14.39;63.56;98329.75;7740572;22;96787;-68
2023/02/18 00:30:08;;;;;;;;;8.00;8.00;;;;;14.54;63.34;98319.03;7740068;22;96204;-68
2023/02/18 00:33:13;;;;;;;;;7.00;7.00;;;;;14.55;63.31;98325.28;7737866;22;96293;-68
2023/02/18 00:36:19;;;;;;;;;8.00;8.00;;;;;14.51;63.29;98326.88;7711737;22;96299;-68
2023/02/18 00:39:22;;;;;;;;;6.00;6.00;;;;;14.62;62.62;98345.66;7740223;22;96668;-68
2023/02/18 00:42:28;;;;;;;;;6.60;6.00;;;;;14.55;62.77;98338.84;7739238;22;96222;-68
2023/02/18 00:45:31;;;;;;;;;7.50;7.00;;;;;14.52;62.63;98329.31;7712296;22;96210;-68
2023/02/18 00:48:36;;;;;;;;;7.00;6.00;;;;;14.39;62.64;98332.47;7741506;22;96266;-68
2023/02/18 00:51:40;;;;;;;;;6.00;5.00;;;;;14.26;61.66;98301.19;7714914;22;96429;-68
2023/02/18 00:54:43;;;;;;;;;5.60;5.00;;;;;14.50;61.20;98322.53;7714816;22;98371;-67
2023/02/18 00:57:46;;;;;;;;;4.40;3.00;;;;;14.63;60.63;98295.75;7690293;22;96548;-67
2023/02/18 01:00:50;;;;;;;;;4.00;4.00;;;;;14.66;60.18;98332.41;7689667;22;96736;-68
2023/02/18 01:03:55;;;;;;;;;4.00;4.00;;;;;14.66;59.83;98345.97;7743735;22;96275;-67
2023/02/18 01:06:59;;;;;;;;;5.80;5.80;;;;;14.80;59.50;98357.19;7744429;22;96230;-67
2023/02/18 01:10:03;;;;;;;;;6.00;6.00;;;;;14.64;59.39;98332.66;7716003;22;96346;-68
2023/02/18 01:13:07;;;;;;;;;4.33;4.33;;;;;14.84;59.03;98369.16;7741165;22;96431;-68
2023/02/18 01:16:10;;;;;;;;;5.20;5.20;;;;;14.96;58.85;98364.31;7716227;22;96767;-68
2023/02/18 01:19:15;;;;;;;;;5.50;5.00;;;;;14.88;59.75;98375.69;7714166;22;96590;-68
2023/02/18 01:22:19;;;;;;;;;4.00;4.00;;;;;14.64;59.75;98418.66;7712023;22;96969;-68
2023/02/18 01:25:22;;;;;;;;;6.00;6.00;;;;;14.51;59.22;98438.91;7741074;22;96457;-68
2023/02/18 01:28:26;;;;;;;;;5.60;5.00;;;;;14.57;58.33;98435.13;7739650;22;96689;-68
2023/02/18 01:31:29;;;;;;;;;3.00;3.00;;;;;14.48;57.98;98427.72;7739110;22;96249;-68
2023/02/18 01:34:35;;;;;;;;;6.00;6.00;;;;;14.49;56.37;98432.91;7686456;22;98323;-68
2023/02/18 01:37:39;;;;;;;;;6.00;6.00;;;;;14.51;55.33;98424.53;7739547;22;96365;-68
2023/02/18 01:40:50;;;;;;;;;7.00;6.25;;;;;14.39;54.91;98430.09;7686208;22;98354;-68
2023/02/18 01:44:15;;;;;;;;;6.80;6.80;;;;;14.31;55.49;98431.38;7712350;22;96219;-68
2023/02/18 01:47:21;;;;;;;;;7.00;6.00;;;;;14.23;54.78;98429.09;7683813;22;97206;-69
2023/02/18 01:50:28;;;;;;;;;5.20;4.60;;;;;14.27;53.90;98434.81;7738505;22;96642;-68
2023/02/18 01:53:42;;;;;;;;;5.00;5.00;;;;;14.30;53.61;98437.84;7736538;22;95940;-68
2023/02/18 01:56:50;;;;;;;;;6.00;6.00;;;;;14.27;53.49;98456.50;7737741;22;96202;-68
2023/02/18 01:59:58;;;;;;;;;4.40;4.00;;;;;14.12;53.94;98448.25;7711579;22;96256;-68
2023/02/18 02:03:05;;;;;;;;;4.80;4.80;;;;;13.98;53.56;98428.84;7739848;22;97537;-68
2023/02/18 02:06:16;;;;;;;;;4.00;4.00;;;;;13.89;52.74;98447.44;7686130;22;96792;-68
2023/02/18 02:09:23;;;;;;;;;4.00;4.00;;;;;13.81;nan;98447.91;7713071;22;96330;-68
2023/02/18 02:12:45;;;;;;;;;3.00;3.00;;;;;13.94;52.52;98451.28;7742694;22;96767;-68
2023/02/18 02:15:53;;;;;;;;;3.00;3.00;;;;;13.76;52.61;98437.00;7714606;22;96236;-67
2023/02/18 02:19:19;;;;;;;;;4.80;4.00;;;;;13.63;50.36;98450.94;7740308;22;96229;-68
2023/02/18 02:23:00;;;;;;;;;3.75;3.00;;;;;13.68;50.40;98445.56;7742470;22;96274;-67
2023/02/18 02:26:44;;;;;;;;;4.00;4.00;;;;;13.61;48.96;98436.81;7743254;22;96324;-68
2023/02/18 02:30:35;;;;;;;;;4.60;4.00;;;;;13.79;48.55;98444.63;7707481;22;96450;-68
2023/02/18 02:34:07;;;;;;;;;3.40;3.40;;;;;13.71;49.02;98455.09;7602373;22;96285;-68
2023/02/18 02:37:24;;;;;;;;;3.60;3.00;;;;;13.58;50.02;98441.94;7715991;22;96385;-67
2023/02/18 02:40:36;;;;;;;;;3.00;3.00;;;;;13.49;50.15;98457.75;7716711;22;96487;-69
2023/02/18 02:43:52;;;;;;;;;4.00;3.40;;;;;13.44;48.86;98463.13;7716656;22;96179;-67
2023/02/18 02:47:05;;;;;;;;;3.00;3.00;;;;;13.57;48.53;98464.66;7715451;22;96973;-68
2023/02/18 02:50:14;;;;;;;;;2.25;2.25;;;;;13.58;47.32;98471.72;7712542;22;96832;-67
2023/02/18 02:53:23;;;;;;;;;7.00;7.00;;;;;13.52;47.12;98473.53;7713215;22;97425;-69
2023/02/18 02:56:27;;;;;;;;;2.40;2.00;;;;;13.44;46.92;98479.38;7713786;22;96310;-68
2023/02/18 02:59:31;;;;;;;;;3.00;2.00;;;;;13.46;47.33;98477.25;7713622;22;96446;-68
2023/02/18 03:02:48;;;;;;;;;3.40;3.00;;;;;13.35;47.68;98467.31;7686538;22;96655;-68
2023/02/18 03:06:10;;;;;;;;;4.00;4.00;;;;;13.32;48.17;98493.03;7716631;22;96609;-67
2023/02/18 03:09:21;;;;;;;;;3.20;3.20;;;;;13.36;48.35;98486.03;7717171;22;96227;-68
2023/02/18 03:12:34;;;;;;;;;4.00;4.00;;;;;13.39;48.61;98495.53;7719127;22;96543;-67
2023/02/18 03:15:45;;;;;;;;;3.00;3.00;;;;;13.38;48.91;98502.03;7717728;22;96282;-67
2023/02/18 03:18:56;;;;;;;;;2.25;2.25;;;;;13.36;49.29;98517.72;7716949;22;98193;-68
2023/02/18 03:22:06;;;;;;;;;3.00;3.00;;;;;13.46;49.57;98515.16;7721887;22;96215;-68
2023/02/18 03:25:12;;;;;;;;;4.00;4.00;;;;;13.48;50.03;98523.03;7696642;22;98393;-68
2023/02/18 03:28:20;;;;;;;;;3.80;3.00;;;;;13.46;50.18;98515.16;7748769;22;96879;-68
2023/02/18 03:31:27;;;;;;;;;4.40;4.40;;;;;13.36;50.54;98515.81;7720523;22;96345;-68
2023/02/18 03:34:36;;;;;;;;;1.75;1.75;;;;;13.54;50.41;98527.44;7696667;22;97060;-68
2023/02/18 03:37:45;;;;;;;;;2.67;2.67;;;;;13.50;50.48;98521.69;7722368;22;96734;-67
2023/02/18 03:40:50;;;;;;;;;4.40;4.00;;;;;13.40;50.74;98494.47;7721769;22;96343;-68
2023/02/18 03:44:01;;;;;;;;;4.00;4.00;;;;;13.30;51.28;98530.34;7722196;22;96774;-68
2023/02/18 03:47:04;;;;;;;;;4.60;4.00;;;;;13.18;51.51;98535.03;7722307;22;96233;-67
2023/02/18 03:50:09;;;;;;;;;2.80;2.80;;;;;13.20;50.49;98532.06;7746593;22;96401;-68
2023/02/18 03:53:12;;;;;;;;;4.00;4.00;;;;;13.03;50.17;98551.81;7720879;22;96342;-67
2023/02/18 03:56:17;;;;;;;;;3.00;3.00;;;;;13.12;48.68;98540.63;7720112;22;96199;-67
2023/02/18 03:59:21;;;;;;;;;4.00;4.00;;;;;13.02;49.17;98555.59;7746547;22;96672;-68
2023/02/18 04:02:24;;;;;;;;;2.00;2.00;;;;;13.00;49.89;98549.59;7745998;22;96299;-67
2023/02/18 04:05:39;;;;;;;;;3.00;3.00;;;;;12.91;51.06;98553.78;7746309;22;96314;-67
2023/02/18 04:08:43;;;;;;;;;3.20;2.00;;;;;12.97;52.27;98560.09;7747095;22;96184;-67
2023/02/18 04:11:48;;;;;;;;;4.00;4.00;;;;;12.94;53.64;98558.72;7746497;22;96760;-67
2023/02/18 04:14:51;;;;;;;;;4.00;3.00;;;;;12.99;53.69;98566.09;7747808;22;96331;-67
2023/02/18 04:17:55;;;;;;;;;3.00;3.00;;;;;12.98;54.14;98562.56;7747981;22;96472;-67
2023/02/18 04:20:58;;;;;;;;;4.00;4.00;;;;;12.85;54.72;98552.03;7747223;22;96845;-68
2023/02/18 04:24:02;;;;;;;;;4.00;3.00;;;;;12.80;54.91;98546.56;7745377;22;96235;-68
2023/02/18 04:27:07;;;;;;;;;3.00;3.00;;;;;12.89;54.79;98547.81;7693365;22;98744;-67
2023/02/18 04:30:11;;;;;;;;;4.00;3.00;;;;;12.81;54.01;98550.88;7720650;22;96704;-67
2023/02/18 04:33:15;;;;;;;;;4.00;3.50;;;;;12.79;52.55;98553.03;7717304;22;96581;-68
2023/02/18 04:36:18;;;;;;;;;4.00;4.00;;;;;12.75;51.76;98549.19;7746252;22;96212;-67
2023/02/18 04:39:21;;;;;;;;;2.00;2.00;;;;;12.48;50.42;98540.00;7746493;22;96725;-68
2023/02/18 04:42:27;;;;;;;;;3.00;3.00;;;;;12.56;49.66;98545.84;7747380;22;96265;-68
2023/02/18 04:45:30;;;;;;;;;4.00;3.50;;;;;12.54;49.53;98547.16;7748414;22;96258;-67
2023/02/18 04:48:33;;;;;;;;;4.00;4.00;;;;;12.51;46.97;98540.34;7747428;22;96314;-68
2023/02/18 04:51:37;;;;;;;;;4.00;4.00;;;;;12.45;44.33;98552.16;7718462;22;96592;-70
2023/02/18 04:54:40;;;;;;;;;4.00;4.00;;;;;12.40;43.20;98543.13;7718920;22;96689;-68
2023/02/18 04:57:45;;;;;;;;;3.75;3.75;;;;;12.30;41.50;98565.38;7749322;22;96447;-67
2023/02/18 05:00:49;;;;;;;;;4.25;4.25;;;;;12.39;41.60;98552.28;7750016;22;96326;-67
2023/02/18 05:03:52;;;;;;;;;4.00;3.80;;;;;12.39;42.10;98560.41;7747821;22;96222;-68
2023/02/18 05:06:55;;;;;;;;;3.00;3.00;;;;;12.44;42.66;98572.13;7719785;22;96563;-68
2023/02/18 05:09:59;;;;;;;;;3.00;2.00;;;;;12.38;43.62;98564.97;7746663;22;96286;-68
2023/02/18 05:13:04;;;;;;;;;5.00;3.25;;;;;12.35;42.13;98568.16;7746375;22;96188;-68
2023/02/18 05:16:07;;;;;;;;;3.00;2.40;;;;;12.41;41.48;98567.19;7746586;22;96149;-68
2023/02/18 05:19:14;;;;;;;;;3.00;3.00;;;;;12.33;39.55;98561.34;7746802;22;96380;-68
2023/02/18 05:22:18;;;;;;;;;2.40;2.40;;;;;12.43;39.14;98573.19;7748724;22;96227;-68
2023/02/18 05:25:21;;;;;;;;;3.00;3.00;;;;;12.36;38.55;98574.41;7749056;22;96215;-67
2023/02/18 05:28:26;;;;;;;;;2.00;2.00;;;;;12.36;38.10;98574.41;7752897;22;96364;-68
2023/02/18 05:31:29;;;;;;;;;3.00;3.00;;;;;12.33;37.33;98573.00;7753934;22;96804;-67
2023/02/18 05:34:33;;;;;;;;;1.00;1.00;;;;;12.40;38.25;98572.84;7754851;22;96487;-68
2023/02/18 05:37:36;;;;;;;;;4.00;3.75;;;;;12.33;38.28;98580.28;7752652;22;96571;-68
2023/02/18 05:40:42;;;;;;;;;2.00;2.00;;;;;12.41;38.39;98578.00;7749914;22;96215;-67
2023/02/18 05:47:10;;;;;;;;;2.00;2.00;;;;;12.47;38.89;98589.75;7721457;22;96720;-68
2023/02/18 05:50:14;;;;;;;;;1.40;1.40;;;;;12.36;38.55;98590.63;7747349;22;96410;-68
2023/02/18 05:53:17;;;;;;;;;1.20;1.20;;;;;12.20;36.94;98586.78;7745959;22;96278;-68
2023/02/18 05:56:20;;;;;;;;;3.40;3.00;;;;;12.15;35.39;98598.31;7747002;22;96247;-67
2023/02/18 05:59:25;;;;;;;;;3.00;3.00;;;;;12.13;34.79;98595.03;7747086;22;96297;-67
2023/02/18 06:02:28;;;;;;;;;2.00;2.00;;;;;12.15;33.58;98605.59;7746062;22;96879;-67
2023/02/18 06:05:32;;;;;;;;;5.00;4.40;;;;;12.21;34.06;98614.63;7720874;22;96605;-67
2023/02/18 06:08:35;;;;;;;;;4.00;4.00;;;;;12.27;33.99;98613.66;7748991;22;96225;-67
2023/02/18 06:11:39;;;;;;;;;2.33;2.33;;;;;12.26;33.76;98601.22;7749160;22;96311;-67
2023/02/18 06:14:44;;;;;;;;;2.80;2.00;;;;;12.37;33.39;98597.66;7719283;22;96300;-67
2023/02/18 06:17:47;;;;;;;;;2.00;2.00;;;;;12.42;32.95;98611.25;7750357;22;96486;-68
2023/02/18 06:20:51;;;;;;;;;3.00;3.00;;;;;12.45;33.64;98611.63;7748476;22;96306;-67
2023/02/18 06:23:54;;;;;;;;;2.00;2.00;;;;;12.53;33.51;98607.72;7746489;22;96328;-68
2023/02/18 06:26:57;;;;;;;;;4.00;4.00;;;;;12.70;32.72;98611.31;7746908;22;96721;-68
2023/02/18 06:30:02;;;;;;;;;1.60;1.60;;;;;12.65;31.68;98599.56;7745485;22;96187;-68
2023/02/18 06:33:06;;;;;;;;;2.00;2.00;;;;;12.72;32.05;98598.34;7716119;22;96195;-67
2023/02/18 06:36:11;;;;;;;;;1.00;1.00;;;;;12.78;32.07;98602.78;7743526;22;96239;-68
2023/02/18 06:39:14;;;;;;;;;2.00;2.00;;;;;12.87;32.16;98617.56;7714735;22;96187;-69
2023/02/18 06:42:18;;;;;;;;;2.00;2.00;;;;;12.95;32.72;98617.16;7747791;22;96267;-69
2023/02/18 06:45:23;;;;;;;;;1.00;1.00;;;;;12.85;33.29;98621.59;7714524;22;96942;-69
2023/02/18 06:48:26;;;;;;;;;3.00;3.00;;;;;12.79;33.05;98617.97;7741501;22;97297;-68
2023/02/18 06:51:29;;;;;;;;;4.00;4.00;;;;;12.76;32.52;98623.00;7741034;22;96495;-68
2023/02/18 06:54:34;;;;;;;;;2.60;2.60;;;;;13.01;32.45;98626.19;7741309;22;96183;-68
2023/02/18 06:57:37;;;;;;;;;1.00;1.00;;;;;13.04;31.80;98625.72;7713187;22;97538;-68
2023/02/18 07:00:42;;;;;;;;;2.80;2.80;;;;;13.17;31.18;98619.19;7741908;22;96530;-68
2023/02/18 07:03:45;;;;;;;;;3.00;3.00;;;;;13.20;31.60;98632.22;7742072;22;96281;-68
2023/02/18 07:06:52;;;;;;;;;4.00;4.00;;;;;13.35;31.64;98627.88;7741429;22;96211;-68
2023/02/18 07:09:55;;;;;;;;;3.40;3.00;;;;;13.28;31.53;98629.97;7742447;22;96291;-68
2023/02/18 07:12:59;;;;;;;;;2.00;2.00;;;;;13.23;31.16;98637.16;7740357;22;96876;-69
2023/02/18 07:16:04;;;;;;;;;4.00;3.80;;;;;13.25;31.62;98635.84;7714500;22;96616;-68
2023/02/18 07:19:07;;;;;;;;;2.25;2.25;;;;;13.44;31.37;98645.38;7743400;22;97044;-68
2023/02/18 07:22:11;;;;;;;;;5.80;4.80;;;;;13.66;30.50;98655.47;7744705;22;96392;-68
2023/02/18 07:25:15;;;;;;;;;7.25;7.25;;;;;13.73;30.27;98653.44;7716362;22;98641;-68
2023/02/18 07:28:18;;;;;;;;;4.00;4.00;;;;;13.86;30.92;98656.63;7743513;22;96487;-68
2023/02/18 07:31:23;;;;;;;;;4.00;4.00;;;;;13.78;31.01;98646.16;7743639;22;96269;-68
2023/02/18 07:34:26;;;;;;;;;5.00;5.00;;;;;13.73;30.85;98646.09;7743198;22;96317;-68
2023/02/18 07:37:29;;;;;;;;;2.00;2.00;;;;;13.88;31.12;98640.91;7742957;22;96197;-68
2023/02/18 07:40:33;;;;;;;;;5.00;5.00;;;;;13.82;31.20;98633.78;7744399;22;96192;-68
2023/02/18 07:43:36;;;;;;;;;6.00;6.00;;;;;13.84;31.74;98647.06;7743545;22;96505;-68
2023/02/18 07:46:42;;;;;;;;;4.00;3.60;;;;;13.83;32.13;98638.13;7744451;22;96037;-68
2023/02/18 07:49:45;;;;;;;;;4.50;4.00;;;;;13.80;32.52;98635.91;7716222;22;96211;-68
2023/02/18 07:52:49;;;;;;;;;6.00;6.00;;;;;13.65;32.26;98640.28;7716127;22;96389;-68
2023/02/18 07:55:52;;;;;;;;;4.20;4.00;;;;;13.64;31.63;98619.66;7715494;22;96203;-67
2023/02/18 07:58:55;;;;;;;;;2.25;2.25;;;;;13.58;31.23;98616.09;7742548;22;96238;-68
2023/02/18 08:02:00;;;;;;;;;4.40;4.00;;;;;13.77;31.16;98611.22;7743256;22;97286;-68
2023/02/18 08:05:03;;;;;;;;;8.00;8.00;;;;;13.57;31.27;98600.91;7743220;22;96342;-68
2023/02/18 08:08:07;;;;;;;;;4.00;4.00;;;;;13.59;31.55;98620.41;7746984;22;96636;-69
2023/02/18 08:11:10;;;;;;;;;9.00;8.00;;;;;13.72;30.93;98635.53;7754394;22;96330;-70
2023/02/18 08:14:21;;;;;;;;;5.00;5.00;;;;;13.71;30.73;98614.91;7719141;22;96662;-68
2023/02/18 08:17:26;;;;;;;;;4.00;4.00;;;;;13.64;30.33;98633.22;7745303;22;96584;-68
2023/02/18 08:20:30;;;;;;;;;5.00;5.00;;;;;13.61;30.04;98637.25;7747248;22;96324;-68
2023/02/18 08:23:33;;;;;;;;;4.80;4.40;;;;;13.63;30.54;98645.97;7748151;22;96108;-68
2023/02/18 08:26:36;;;;;;;;;8.00;7.00;;;;;13.58;30.79;98637.75;7694247;22;96767;-68
2023/02/18 08:29:40;;;;;;;;;6.00;5.00;;;;;13.34;30.43;98606.50;7748781;22;96305;-66
2023/02/18 08:32:44;;;;;;;;;5.60;5.60;;;;;13.38;30.72;98602.22;7757389;22;96647;-67
2023/02/18 08:35:50;;;;;;;;;4.40;4.40;;;;;13.44;30.93;98602.03;7724665;22;97123;-72
2023/02/18 08:38:53;;;;;;;;;7.25;7.25;;;;;13.65;30.38;98643.00;7745111;22;96442;-68
2023/02/18 08:41:57;;;;;;;;;5.00;5.00;;;;;13.75;30.27;98635.84;7754466;22;96150;-69
2023/02/18 08:45:00;;;;;;;;;6.20;6.00;;;;;13.49;29.97;98608.63;7757053;22;97282;-68
2023/02/18 08:48:06;;;;;;;;;3.60;3.60;;;;;13.76;29.91;98647.50;7753859;22;98082;-68
2023/02/18 08:51:23;;;;;;;;;5.00;5.00;;;;;13.81;29.57;98632.16;7727800;22;96764;-69
2023/02/18 08:54:26;;;;;;;;;6.00;6.00;;;;;13.99;30.24;98631.03;7755093;22;96786;-69
2023/02/18 08:57:29;;;;;;;;;3.80;3.80;;;;;14.08;29.75;98645.78;7755505;22;96738;-68
2023/02/18 09:00:33;;;;;;;;;3.25;3.25;;;;;14.17;29.44;98643.50;7757009;22;96451;-69
2023/02/18 09:03:38;;;;;;;;;6.00;6.00;;;;;14.36;29.53;98644.00;7730976;22;96232;-68
2023/02/18 09:06:41;;;;;;;;;5.00;4.40;;;;;14.42;29.15;98645.72;7760483;22;96381;-68
2023/02/18 09:09:45;;;;;;;;;2.00;2.00;;;;;14.40;29.31;98648.72;7734745;22;96962;-69
2023/02/18 09:12:48;;;;;;;;;2.00;1.60;;;;;14.23;28.51;98631.63;7763047;22;96210;-68
2023/02/18 09:15:59;;;;;;;;;0.80;0.80;;;;;14.17;29.46;98627.22;7733968;22;99053;-68
2023/02/18 09:19:04;;;;;;;;;3.00;3.00;;;;;14.26;29.85;98639.28;7732171;22;96586;-69
2023/02/18 09:22:08;;;;;;;;;2.00;1.40;;;;;14.29;29.61;98650.44;7760576;22;96863;-68
2023/02/18 09:25:11;;;;;;;;;2.00;2.00;;;;;14.16;29.79;98615.56;7734460;22;98859;-68
2023/02/18 09:28:14;;;;;;;;;2.00;2.00;;;;;14.17;29.36;98657.06;7730650;22;96675;-69
2023/02/18 09:31:20;;;;;;;;;1.60;1.00;;;;;14.14;30.26;98642.09;7759175;22;96118;-68
2023/02/18 09:34:25;;;;;;;;;2.75;2.00;;;;;14.18;30.33;98654.06;7761284;22;96812;-68
2023/02/18 09:37:28;;;;;;;;;2.00;2.00;;;;;13.99;30.58;98632.91;7762652;22;96274;-68
2023/02/18 09:40:35;;;;;;;;;2.00;2.00;;;;;14.26;30.70;98658.25;7762114;22;96208;-69
2023/02/18 09:43:42;;;;;;;;;2.00;2.00;;;;;14.34;31.30;98663.25;7757516;22;96748;-68
2023/02/18 09:46:51;;;;;;;;;4.00;4.00;;;;;14.27;30.67;98652.56;7764557;22;96309;-69
2023/02/18 09:49:59;;;;;;;;;5.50;5.50;;;;;14.22;30.82;98673.38;7764711;22;96051;-68
2023/02/18 09:53:04;;;;;;;;;5.00;5.00;;;;;14.22;30.92;98651.69;7766745;22;97639;-69
2023/02/18 09:56:10;;;;;;;;;7.40;7.00;;;;;14.35;31.00;98642.38;7766012;22;96303;-68
2023/02/18 09:59:18;;;;;;;;;6.00;6.00;;;;;14.33;31.10;98637.19;7765523;22;96285;-68
2023/02/18 10:02:21;;;;;;;;;4.00;4.00;;;;;14.26;31.49;98636.56;7762920;22;96940;-68
2023/02/18 10:05:29;;;;;;;;;5.20;5.00;;;;;14.24;31.74;98625.13;7764540;22;97401;-68
2023/02/18 10:08:37;;;;;;;;;4.00;4.00;;;;;14.19;32.47;98603.38;7765732;22;96241;-68
2023/02/18 10:11:42;;;;;;;;;6.20;5.80;;;;;14.25;32.32;98622.19;7762602;22;96817;-68
2023/02/18 10:14:49;;;;;;;;;5.00;5.00;;;;;14.37;32.89;98615.84;7763620;22;96241;-68
2023/02/18 10:17:54;;;;;;;;;5.00;4.00;;;;;14.38;32.88;98602.03;7737581;22;97141;-69
2023/02/18 10:21:06;;;;;;;;;4.00;4.00;;;;;14.53;32.49;98595.94;7738412;22;96341;-69
2023/02/18 10:24:29;;;;;;;;;4.00;4.00;;;;;14.34;31.66;98603.56;7761018;22;96324;-69
2023/02/18 10:27:35;;;;;;;;;4.00;4.00;;;;;14.50;31.37;98596.47;7763703;22;96238;-68
2023/02/18 10:30:42;;;;;;;;;2.40;2.40;;;;;14.47;31.00;98572.56;7734259;22;96834;-69
2023/02/18 10:33:50;;;;;;;;;1.00;1.00;;;;;14.51;31.21;98577.25;7761529;22;96211;-69
2023/02/18 10:36:58;;;;;;;;;4.00;4.00;;;;;14.36;31.38;98568.06;7760540;22;96218;-68
2023/02/18 10:40:10;;;;;;;;;3.00;2.80;;;;;14.15;31.75;98580.56;7760172;22;96237;-68
2023/02/18 10:43:22;;;;;;;;;2.00;2.00;;;;;14.10;32.21;98608.44;7761633;22;96495;-68
2023/02/18 10:46:33;;;;;;;;;4.40;4.00;;;;;13.92;32.96;98580.81;7763106;22;96170;-68
2023/02/18 10:49:57;;;;;;;;;2.00;2.00;;;;;13.98;33.04;98591.44;7765383;22;96322;-69
2023/02/18 10:53:08;;;;;;;;;2.80;2.80;;;;;13.90;33.08;98594.59;7714055;22;99101;-68
2023/02/18 10:56:33;;;;;;;;;1.00;1.00;;;;;13.93;33.73;98580.53;7765005;22;96949;-68
2023/02/18 10:59:37;;;;;;;;;3.00;3.00;;;;;13.92;33.85;98587.06;7763461;22;96518;-69
2023/02/18 11:02:41;;;;;;;;;3.60;3.00;;;;;13.86;34.26;98566.38;7759526;22;96274;-68
2023/02/18 11:05:46;;;;;;;;;2.25;2.25;;;;;14.13;34.48;98575.38;7761131;22;96226;-69
2023/02/18 11:08:54;;;;;;;;;2.00;2.00;;;;;13.88;34.59;98572.34;7760619;22;96138;-68
2023/02/18 11:12:07;;;;;;;;;3.00;2.00;;;;;13.84;35.05;98561.19;7735073;22;97480;-68
2023/02/18 11:15:19;;;;;;;;;3.40;3.40;;;;;13.95;35.70;98569.47;7760954;22;97209;-69
2023/02/18 11:18:30;;;;;;;;;3.00;2.60;;;;;13.86;35.92;98542.81;7761656;22;96246;-68
2023/02/18 11:21:36;;;;;;;;;2.80;2.00;;;;;13.92;36.23;98559.94;7761621;22;96230;-68
2023/02/18 11:24:47;;;;;;;;;1.00;1.00;;;;;14.03;36.33;98550.03;7761172;22;96027;-68
2023/02/18 11:27:54;;;;;;;;;6.00;5.60;;;;;14.15;36.32;98562.41;7763035;22;96701;-68
2023/02/18 11:31:01;;;;;;;;;4.00;4.00;;;;;14.40;36.15;98548.38;7760565;22;96304;-69
2023/02/18 11:34:06;;;;;;;;;2.40;2.40;;;;;14.50;35.92;98548.47;7731677;22;96198;-69
2023/02/18 11:37:12;;;;;;;;;3.00;3.00;;;;;14.47;36.07;98543.53;7759211;22;96118;-68
2023/02/18 11:40:24;;;;;;;;;4.00;4.00;;;;;14.54;36.24;98555.03;7760991;22;96845;-68
2023/02/18 11:43:31;;;;;;;;;4.00;3.00;;;;;14.36;36.97;98540.97;7734418;22;96424;-68
2023/02/18 11:46:34;;;;;;;;;3.00;3.00;;;;;14.04;38.17;98527.28;7707939;22;96657;-68
2023/02/18 11:49:37;;;;;;;;;5.00;5.00;;;;;14.10;38.69;98534.41;7734799;22;96826;-68
2023/02/18 11:52:42;;;;;;;;;3.00;3.00;;;;;14.22;39.24;98529.69;7736300;22;96937;-69
2023/02/18 11:55:55;;;;;;;;;2.50;2.50;;;;;14.13;39.57;98518.44;7758971;22;96217;-68
2023/02/18 11:59:00;;;;;;;;;6.00;6.00;;;;;13.73;40.60;98521.47;7728669;22;96522;-68
2023/02/18 12:02:23;;;;;;;;;5.75;5.00;;;;;13.84;40.89;98523.25;7705691;22;98325;-68
2023/02/18 12:05:31;;;;;;;;;5.60;5.00;;;;;13.69;41.69;98528.47;7758800;22;96790;-69
2023/02/18 12:08:47;;;;;;;;;4.60;4.60;;;;;13.40;42.69;98530.50;7760420;22;96180;-68
2023/02/18 12:11:56;;;;;;;;;7.00;6.40;;;;;13.35;43.34;98521.47;7761918;22;96326;-68
2023/02/18 12:15:02;;;;;;;;;5.20;5.20;;;;;13.39;43.32;98525.31;7761167;22;96225;-68
2023/02/18 12:18:27;;;;;;;;;6.60;5.60;;;;;13.30;44.08;98521.41;7760569;22;96450;-69
2023/02/18 12:21:42;;;;;;;;;7.40;6.40;;;;;13.30;44.55;98519.50;7761022;22;96284;-68
2023/02/18 12:25:09;;;;;;;;;5.00;5.00;;;;;13.39;44.49;98517.19;7735587;22;96236;-68
2023/02/18 12:28:38;;;;;;;;;5.00;5.00;;;;;13.40;45.12;98505.31;7762523;22;96268;-68
2023/02/18 12:31:59;;;;;;;;;5.50;5.50;;;;;13.27;45.00;98497.53;7760809;22;96779;-68
2023/02/18 12:35:19;;;;;;;;;3.00;3.00;;;;;13.29;45.17;98496.22;7759223;22;96207;-68
2023/02/18 12:38:40;;;;;;;;;4.00;3.00;;;;;13.35;45.27;98499.81;7759330;22;96272;-70
2023/02/18 12:41:55;;;;;;;;;4.00;4.00;;;;;13.29;45.43;98500.84;7758782;22;96755;-68
2023/02/18 12:45:18;;;;;;;;;6.00;6.00;;;;;13.08;45.83;98459.06;7761724;22;96186;-70
2023/02/18 12:48:50;;;;;;;;;3.40;3.40;;;;;13.22;45.79;98468.50;7759645;22;96194;-68
2023/02/18 12:52:08;;;;;;;;;4.00;4.00;;;;;13.41;45.98;98453.63;7757759;22;96527;-70
2023/02/18 12:55:34;;;;;;;;;4.40;3.00;;;;;13.49;46.00;98451.56;7757996;22;96424;-70
2023/02/18 12:58:49;;;;;;;;;3.60;2.60;;;;;13.59;45.75;98444.38;7755985;22;96310;-70
2023/02/18 13:02:02;;;;;;;;;5.00;5.00;;;;;13.69;46.22;98441.78;7732853;22;96409;-68
2023/02/18 13:05:12;;;;;;;;;3.00;3.00;;;;;13.70;46.19;98434.47;7764613;22;96217;-71
2023/02/18 13:08:30;;;;;;;;;6.00;6.00;;;;;13.44;46.76;98384.59;7736455;22;96207;-68
2023/02/18 13:11:40;;;;;;;;;5.20;5.00;;;;;13.59;47.26;98402.91;7766359;22;96292;-68
2023/02/18 13:14:50;;;;;;;;;4.00;4.00;;;;;13.59;47.81;98401.03;7765470;22;96251;-68
2023/02/18 13:17:58;;;;;;;;;4.00;4.00;;;;;13.66;47.98;98401.66;7766605;22;96318;-68
2023/02/18 13:21:05;;;;;;;;;6.75;6.00;;;;;13.70;47.97;98385.72;7766263;22;96212;-68
2023/02/18 13:24:14;;;;;;;;;3.00;2.75;;;;;13.64;48.64;98389.44;7765670;22;96864;-70
2023/02/18 13:27:24;;;;;;;;;4.00;4.00;;;;;13.53;48.92;98390.41;7737431;22;96628;-70
2023/02/18 13:30:33;;;;;;;;;6.00;4.60;;;;;13.34;48.89;98366.34;7707781;22;97131;-70
2023/02/18 13:33:47;;;;;;;;;7.00;7.00;;;;;13.31;49.47;98376.84;7760806;22;97302;-70
2023/02/18 13:36:59;;;;;;;;;5.00;5.00;;;;;13.12;49.48;98362.81;7757136;22;96538;-70
2023/02/18 13:40:04;;;;;;;;;6.33;6.33;;;;;13.11;49.33;98352.19;7758328;22;96448;-68
2023/02/18 13:43:28;;;;;;;;;7.00;7.00;;;;;12.97;50.05;98343.63;7760231;22;96191;-70
2023/02/18 13:46:31;;;;;;;;;7.00;7.00;;;;;12.83;50.19;98355.88;7760686;22;96313;-70
2023/02/18 13:49:39;;;;;;;;;5.20;5.00;;;;;12.79;50.51;98344.75;7757696;22;96240;-70
2023/02/18 13:52:43;;;;;;;;;6.80;5.80;;;;;12.72;50.77;98335.97;7733156;22;98468;-68
2023/02/18 13:56:02;;;;;;;;;8.40;7.40;;;;;12.58;50.81;98335.50;7762806;22;96901;-68
2023/02/18 13:59:11;;;;;;;;;10.00;8.00;;;;;12.62;50.92;98316.91;7733606;22;97301;-70
2023/02/18 14:02:55;;;;;;;;;8.00;7.60;;;;;12.43;51.36;98313.66;7758316;22;96190;-70
2023/02/18 14:06:00;;;;;;;;;7.60;7.00;;;;;12.39;51.49;98301.69;7745509;22;96270;-70
2023/02/18 14:09:36;;;;;;;;;6.00;5.00;;;;;12.45;51.61;98289.09;7759725;22;96422;-70
2023/02/18 14:12:43;;;;;;;;;6.40;6.40;;;;;12.50;51.58;98272.94;7757133;22;96236;-71
2023/02/18 14:15:54;;;;;;;;;7.00;6.40;;;;;12.54;51.74;98274.06;7759098;22;96747;-70
2023/02/18 14:19:00;;;;;;;;;7.00;6.00;;;;;12.55;51.49;98248.69;7759398;22;96260;-70
2023/02/18 14:22:27;;;;;;;;;7.75;6.75;;;;;12.45;51.92;98241.25;7762488;22;96298;-70
2023/02/18 14:25:39;;;;;;;;;9.00;7.67;;;;;12.48;52.09;98239.91;7758732;22;96288;-70
2023/02/18 14:28:49;;;;;;;;;7.60;7.00;;;;;12.51;51.99;98234.03;7754968;22;97104;-70
2023/02/18 14:31:56;;;;;;;;;8.00;7.00;;;;;12.43;52.56;98229.84;7756066;22;96654;-70
2023/02/18 14:35:13;;;;;;;;;7.60;6.60;;;;;12.45;52.56;98211.50;7755892;22;96249;-70
2023/02/18 14:38:33;;;;;;;;;6.00;5.00;;;;;12.48;52.54;98211.00;7755549;22;96319;-70
2023/02/18 14:41:49;;;;;;;;;6.20;6.00;;;;;12.57;52.92;98198.66;7757081;22;96201;-70
2023/02/18 14:45:09;;;;;;;;;12.00;11.00;;;;;12.61;53.31;98190.06;7756761;22;96205;-70
2023/02/18 14:48:32;;;;;;;;;7.00;7.00;;;;;12.68;53.02;98191.50;7758918;22;96223;-69
2023/02/18 14:51:36;;;;;;;;;8.20;8.20;;;;;12.66;53.61;98177.41;7731056;22;97075;-70